Skip Navigation Links Skip Navigation Links

Current Weather

Gilze-Rijen, Netherlands

For information only: do not use for flight planning or navigation.
Latest weather
Observation time Monday, October 18, 2021 9:55 PM CEST
Local time Monday, October 18, 2021 10:16 PM CEST
Flight conditions Visual Meteorological Conditions
Winds
Wind direction South (180°)
Winds variable from 140° to 220°
Wind speed 8 mph
Visibility 6.2 mi.
Sky condition
Ceiling 14,000 ft. overcast
Cloud layer scattered clouds 4,400 ft.
Cloud layer scattered clouds 4,600 ft.
Cloud layer overcast 14,000 ft.
Temperature 57°F
Dewpoint 52°F
Altimeter 30.09 in.Hg
Derived measurements
Relative humidity 82%
Density altitude -49 ft.
Remarks
Special weather observation.
Fully automated report.
METAR SPNL31 KWBC 181959 SPECI EHGR 181955Z AUTO 18007KT 140V220 9999 SCT046 OVC140 14/11 Q1019 BLU TEMPO SCT044

Settings

Location code

InnerDrive.Weather 4.0.6770.0 Release CLR 4.0.30319.42000
Copyright ©2018 Inner Drive Technology. All rights reserved. Portions Copyright ©1986-2018 David Braverman.

Find weather

Site navigation


Skip Navigation Links

Place info

Page info

PayPal - The safer, easier way to pay online!

Return home.

Copyright ©2021 Inner Drive Technology. Purveyors of fine, hand-crafted computer software. Page printed 2021-10-18T20:16:59 UTC.